Time,TemperatureF,DewpointF,PressureIn,WindDirection,WindDirectionDegrees,WindSpeedMPH,WindSpeedGustMPH,Humidity,HourlyPrecipIn,Conditions,Clouds,dailyrainin,SolarRadiationWatts/m^2,SoftwareType,DateUTC
2013-08-30 00:12:00,72.0,51.0,-100.00,NNW,332,2.0,6.0,47,0.00,,,0.00,0.000000,,2013-08-30 06:12:00,
2013-08-30 00:22:00,72.0,51.0,-100.00,NNW,332,2.0,6.0,47,0.00,,,0.00,0.000000,,2013-08-30 06:22:00,
2013-08-30 00:32:00,72.0,51.0,-100.00,NNW,332,2.0,6.0,47,0.00,,,0.00,0.000000,,2013-08-30 06:32:00,
2013-08-30 01:12:00,73.0,52.0,-100.00,NNW,331,2.0,6.0,48,0.00,,,0.00,0.000000,,2013-08-30 07:12:00,
2013-08-30 01:21:00,73.0,52.0,-100.00,NNW,331,2.0,6.0,48,0.00,,,0.00,0.000000,,2013-08-30 07:21:00,
2013-08-30 01:32:00,73.0,52.0,-100.00,NNW,331,2.0,6.0,48,0.00,,,0.00,0.000000,,2013-08-30 07:32:00,
2013-08-30 02:11:00,72.0,53.0,-100.00,NNW,332,4.0,8.0,52,0.00,,,0.00,4.000000,,2013-08-30 08:11:00,
2013-08-30 02:22:00,72.0,53.0,-100.00,NNW,332,4.0,8.0,52,0.00,,,0.00,4.000000,,2013-08-30 08:22:00,
2013-08-30 02:32:00,72.0,53.0,-100.00,NNW,332,4.0,8.0,52,0.00,,,0.00,4.000000,,2013-08-30 08:32:00,
2013-08-30 03:12:00,72.0,54.0,-100.00,NW,306,2.0,8.0,54,0.00,,,0.00,9.000000,,2013-08-30 09:12:00,
2013-08-30 03:22:00,72.0,54.0,-100.00,NW,306,2.0,8.0,54,0.00,,,0.00,9.000000,,2013-08-30 09:22:00,
2013-08-30 03:33:00,72.0,54.0,-100.00,NW,306,2.0,8.0,54,0.00,,,0.00,9.000000,,2013-08-30 09:33:00,
2013-08-30 04:12:00,72.0,55.0,-100.00,SSE,155,3.0,4.0,56,0.00,,,0.00,4.000000,,2013-08-30 10:12:00,
2013-08-30 04:23:00,72.0,55.0,-100.00,SSE,155,3.0,4.0,56,0.00,,,0.00,4.000000,,2013-08-30 10:23:00,
2013-08-30 04:32:00,72.0,55.0,-100.00,SSE,155,3.0,4.0,56,0.00,,,0.00,4.000000,,2013-08-30 10:32:00,
2013-08-30 05:12:00,70.0,56.0,-100.00,NW,315,1.0,5.0,62,-99.99,,,0.00,9.000000,,2013-08-30 11:12:00,
2013-08-30 05:22:00,70.0,56.0,-100.00,NW,315,1.0,5.0,62,-99.99,,,0.00,9.000000,,2013-08-30 11:22:00,
2013-08-30 05:33:00,70.0,56.0,-100.00,NW,315,1.0,5.0,62,-99.99,,,0.00,9.000000,,2013-08-30 11:33:00,
2013-08-30 06:12:00,68.0,56.0,-100.00,NW,319,2.0,5.0,66,0.00,,,0.00,2.000000,,2013-08-30 12:12:00,
2013-08-30 06:21:00,68.0,56.0,-100.00,NW,319,2.0,5.0,66,0.00,,,0.00,2.000000,,2013-08-30 12:21:00,
2013-08-30 06:32:00,68.0,56.0,-100.00,NW,319,2.0,5.0,66,0.00,,,0.00,2.000000,,2013-08-30 12:32:00,
2013-08-30 07:11:00,70.0,59.0,-100.00,West,262,4.0,9.0,68,0.00,,,0.00,4.000000,,2013-08-30 13:11:00,
2013-08-30 07:21:00,70.0,59.0,-100.00,West,262,4.0,9.0,68,0.00,,,0.00,4.000000,,2013-08-30 13:21:00,
2013-08-30 07:32:00,70.0,59.0,-100.00,West,262,4.0,9.0,68,0.00,,,0.00,4.000000,,2013-08-30 13:32:00,
2013-08-30 08:11:00,69.0,60.0,-100.00,SSW,213,4.0,11.0,74,0.00,,,-99.99,61.000000,,2013-08-30 14:11:00,
2013-08-30 08:21:00,69.0,60.0,-100.00,SSW,213,4.0,11.0,74,0.00,,,-99.99,61.000000,,2013-08-30 14:21:00,
2013-08-30 08:32:00,69.0,60.0,-100.00,SSW,213,4.0,11.0,74,0.00,,,-99.99,61.000000,,2013-08-30 14:32:00,
2013-08-30 09:11:00,70.0,59.0,-100.00,South,189,4.0,8.0,69,0.00,,,0.00,176.000000,,2013-08-30 15:11:00,
2013-08-30 09:22:00,70.0,59.0,-100.00,South,189,4.0,8.0,69,0.00,,,0.00,176.000000,,2013-08-30 15:22:00,
2013-08-30 09:33:00,70.0,59.0,-100.00,South,189,4.0,8.0,69,0.00,,,0.00,176.000000,,2013-08-30 15:33:00,
2013-08-30 10:13:00,77.0,63.0,-100.00,ENE,66,4.0,11.0,62,0.00,,,0.00,414.000000,,2013-08-30 16:13:00,
2013-08-30 10:25:00,77.0,63.0,-100.00,ENE,66,4.0,11.0,62,0.00,,,0.00,414.000000,,2013-08-30 16:25:00,
2013-08-30 10:33:00,77.0,63.0,-100.00,ENE,66,4.0,11.0,62,0.00,,,0.00,414.000000,,2013-08-30 16:33:00,
2013-08-30 11:13:00,78.0,62.0,-100.00,SE,146,7.0,14.0,57,0.00,,,0.00,378.000000,,2013-08-30 17:13:00,
2013-08-30 11:23:00,78.0,62.0,-100.00,SE,146,7.0,14.0,57,0.00,,,0.00,378.000000,,2013-08-30 17:23:00,
2013-08-30 11:34:00,78.0,62.0,-100.00,SE,146,7.0,14.0,57,0.00,,,0.00,378.000000,,2013-08-30 17:34:00,
2013-08-30 12:12:00,79.0,61.0,-100.00,SSE,156,7.0,15.0,54,0.00,,,0.00,160.000000,,2013-08-30 18:12:00,
2013-08-30 12:22:00,79.0,61.0,-100.00,SSE,156,7.0,15.0,54,0.00,,,0.00,160.000000,,2013-08-30 18:22:00,
2013-08-30 12:32:00,79.0,61.0,-100.00,SSE,156,7.0,15.0,54,0.00,,,0.00,160.000000,,2013-08-30 18:32:00,
2013-08-30 13:12:00,81.0,62.0,-100.00,SSE,148,9.0,16.0,52,0.00,,,0.00,47.000000,,2013-08-30 19:12:00,
2013-08-30 13:22:00,81.0,62.0,-100.00,SSE,148,9.0,16.0,52,0.00,,,0.00,47.000000,,2013-08-30 19:22:00,
2013-08-30 13:32:00,81.0,62.0,-100.00,SSE,148,9.0,16.0,52,0.00,,,0.00,47.000000,,2013-08-30 19:32:00,
2013-08-30 14:12:00,82.0,59.0,-100.00,SSE,159,10.0,19.0,45,0.00,,,0.00,0.000000,,2013-08-30 20:12:00,
2013-08-30 14:22:00,82.0,59.0,-100.00,SSE,159,10.0,19.0,45,0.00,,,0.00,0.000000,,2013-08-30 20:22:00,
2013-08-30 14:32:00,82.0,59.0,-100.00,SSE,159,10.0,19.0,45,0.00,,,0.00,0.000000,,2013-08-30 20:32:00,
2013-08-30 15:11:00,84.0,60.0,-100.00,SSE,147,10.0,21.0,44,0.00,,,0.00,0.000000,,2013-08-30 21:11:00,
2013-08-30 15:22:00,84.0,60.0,-100.00,SSE,147,10.0,21.0,44,0.00,,,0.00,0.000000,,2013-08-30 21:22:00,
2013-08-30 15:34:00,84.0,60.0,-100.00,SSE,147,10.0,21.0,44,0.00,,,0.00,0.000000,,2013-08-30 21:34:00,
2013-08-30 16:13:00,86.0,58.0,-100.00,SSE,150,7.0,21.0,39,0.00,,,0.00,0.000000,,2013-08-30 22:13:00,
2013-08-30 16:24:00,86.0,58.0,-100.00,SSE,150,7.0,21.0,39,0.00,,,0.00,0.000000,,2013-08-30 22:24:00,
2013-08-30 16:33:00,86.0,58.0,-100.00,SSE,150,7.0,21.0,39,0.00,,,0.00,0.000000,,2013-08-30 22:33:00,
2013-08-30 17:12:00,90.0,58.0,-100.00,SE,130,6.0,18.0,34,0.00,,,0.00,0.000000,,2013-08-30 23:12:00,
2013-08-30 17:22:00,90.0,58.0,-100.00,SE,130,6.0,18.0,34,0.00,,,0.00,0.000000,,2013-08-30 23:22:00,
2013-08-30 17:33:00,90.0,58.0,-100.00,SE,130,6.0,18.0,34,0.00,,,0.00,0.000000,,2013-08-30 23:33:00,
2013-08-30 18:11:00,83.0,61.0,-100.00,NNE,25,4.0,22.0,47,-99.99,,,0.00,0.000000,,2013-08-31 00:11:00,
2013-08-30 18:22:00,83.0,61.0,-100.00,NNE,25,4.0,22.0,47,-99.99,,,0.00,0.000000,,2013-08-31 00:22:00,
2013-08-30 18:32:00,83.0,61.0,-100.00,NNE,25,4.0,22.0,47,-99.99,,,0.00,0.000000,,2013-08-31 00:32:00,
2013-08-30 19:11:00,79.0,56.0,-100.00,NE,54,4.0,18.0,46,0.00,,,0.00,25.000000,,2013-08-31 01:11:00,
2013-08-30 19:22:00,79.0,56.0,-100.00,NE,54,4.0,18.0,46,0.00,,,0.00,25.000000,,2013-08-31 01:22:00,
2013-08-30 19:32:00,79.0,56.0,-100.00,NE,54,4.0,18.0,46,0.00,,,0.00,25.000000,,2013-08-31 01:32:00,
2013-08-30 20:12:00,76.0,60.0,-100.00,NW,313,3.0,13.0,57,0.00,,,0.00,6.000000,,2013-08-31 02:12:00,
2013-08-30 20:22:00,76.0,60.0,-100.00,NW,313,3.0,13.0,57,0.00,,,0.00,6.000000,,2013-08-31 02:22:00,
2013-08-30 20:32:00,76.0,60.0,-100.00,NW,313,3.0,13.0,57,0.00,,,0.00,6.000000,,2013-08-31 02:32:00,
2013-08-30 21:12:00,72.0,62.0,-100.00,South,171,5.0,18.0,71,0.00,,,0.00,0.000000,,2013-08-31 03:12:00,
2013-08-30 21:22:00,72.0,62.0,-100.00,South,171,5.0,18.0,71,0.00,,,0.00,0.000000,,2013-08-31 03:22:00,
2013-08-30 21:34:00,72.0,62.0,-100.00,South,171,5.0,18.0,71,0.00,,,0.00,0.000000,,2013-08-31 03:34:00,
2013-08-30 22:14:00,67.0,59.0,-100.00,SSE,159,3.0,18.0,75,0.00,,,0.00,0.000000,,2013-08-31 04:14:00,
2013-08-30 22:24:00,67.0,59.0,-100.00,SSE,159,3.0,18.0,75,0.00,,,0.00,0.000000,,2013-08-31 04:24:00,
2013-08-30 22:34:00,67.0,59.0,-100.00,SSE,159,3.0,18.0,75,0.00,,,0.00,0.000000,,2013-08-31 04:34:00,
2013-08-30 23:13:00,66.0,57.0,-100.00,SSW,192,5.0,10.0,73,0.00,,,0.00,0.000000,,2013-08-31 05:13:00,
2013-08-30 23:23:00,66.0,57.0,-100.00,SSW,192,5.0,10.0,73,0.00,,,0.00,0.000000,,2013-08-31 05:23:00,
2013-08-30 23:34:00,66.0,57.0,-100.00,SSW,192,5.0,10.0,73,0.00,,,0.00,0.000000,,2013-08-31 05:34:00,